sensor_id;sensor_type;location;lat;lon;timestamp;pressure;altitude;pressure_sealevel;temperature;humidity
50710;BME280;37033;49.994;21.992;2023-04-07T00:01:18;99000.16;;;0.16;91.14
50710;BME280;37033;49.994;21.992;2023-04-07T00:03:49;98996.41;;;0.16;91.15
50710;BME280;37033;49.994;21.992;2023-04-07T00:06:20;98996.22;;;0.16;91.03
50710;BME280;37033;49.994;21.992;2023-04-07T00:08:51;98999.81;;;0.16;91.24
50710;BME280;37033;49.994;21.992;2023-04-07T00:11:21;98994.81;;;0.16;91.29
50710;BME280;37033;49.994;21.992;2023-04-07T00:13:52;98990.45;;;0.15;91.15
50710;BME280;37033;49.994;21.992;2023-04-07T00:16:23;98992.26;;;0.16;91.29
50710;BME280;37033;49.994;21.992;2023-04-07T00:18:53;98989.63;;;0.16;91.48
50710;BME280;37033;49.994;21.992;2023-04-07T00:21:24;98985.17;;;0.15;91.55
50710;BME280;37033;49.994;21.992;2023-04-07T00:23:55;98985.05;;;0.14;91.59
50710;BME280;37033;49.994;21.992;2023-04-07T00:26:26;98982.45;;;0.13;91.60
50710;BME280;37033;49.994;21.992;2023-04-07T00:29:00;98980.11;;;0.14;91.57
50710;BME280;37033;49.994;21.992;2023-04-07T00:31:30;98972.80;;;0.14;91.61
50710;BME280;37033;49.994;21.992;2023-04-07T00:34:01;98972.27;;;0.12;91.78
50710;BME280;37033;49.994;21.992;2023-04-07T00:36:32;98969.38;;;0.11;91.73
50710;BME280;37033;49.994;21.992;2023-04-07T00:39:02;98972.17;;;0.11;91.64
50710;BME280;37033;49.994;21.992;2023-04-07T00:41:35;98966.85;;;0.13;91.73
50710;BME280;37033;49.994;21.992;2023-04-07T00:44:06;98966.52;;;0.13;91.62
50710;BME280;37033;49.994;21.992;2023-04-07T00:46:36;98961.34;;;0.13;91.74
50710;BME280;37033;49.994;21.992;2023-04-07T00:49:07;98960.08;;;0.13;91.59
50710;BME280;37033;49.994;21.992;2023-04-07T00:51:38;98957.90;;;0.13;91.59
50710;BME280;37033;49.994;21.992;2023-04-07T00:54:09;98956.17;;;0.14;91.75
50710;BME280;37033;49.994;21.992;2023-04-07T00:56:39;98965.85;;;0.15;91.52
50710;BME280;37033;49.994;21.992;2023-04-07T00:59:10;98963.07;;;0.16;91.62
50710;BME280;37033;49.994;21.992;2023-04-07T01:01:46;98952.00;;;0.16;91.46
50710;BME280;37033;49.994;21.992;2023-04-07T01:04:25;98960.69;;;0.17;91.60
50710;BME280;37033;49.994;21.992;2023-04-07T01:07:00;98967.97;;;0.17;91.66
50710;BME280;37033;49.994;21.992;2023-04-07T01:09:41;98952.39;;;0.17;91.53
50710;BME280;37033;49.994;21.992;2023-04-07T01:12:20;98951.89;;;0.19;91.65
50710;BME280;37033;49.994;21.992;2023-04-07T01:14:57;98950.66;;;0.17;91.63
50710;BME280;37033;49.994;21.992;2023-04-07T01:17:29;98952.66;;;0.18;91.51
50710;BME280;37033;49.994;21.992;2023-04-07T01:20:04;98956.89;;;0.18;91.66
50710;BME280;37033;49.994;21.992;2023-04-07T01:22:40;98954.14;;;0.19;91.47
50710;BME280;37033;49.994;21.992;2023-04-07T01:25:30;98944.78;;;0.20;91.60
50710;BME280;37033;49.994;21.992;2023-04-07T01:28:24;98942.48;;;0.20;91.82
50710;BME280;37033;49.994;21.992;2023-04-07T01:31:01;98940.65;;;0.19;91.82
50710;BME280;37033;49.994;21.992;2023-04-07T01:33:33;98941.89;;;0.19;91.77
50710;BME280;37033;49.994;21.992;2023-04-07T01:36:06;98932.83;;;0.17;91.94
50710;BME280;37033;49.994;21.992;2023-04-07T01:38:38;98925.27;;;0.18;92.15
50710;BME280;37033;49.994;21.992;2023-04-07T01:41:10;98925.94;;;0.18;92.09
50710;BME280;37033;49.994;21.992;2023-04-07T01:43:43;98932.05;;;0.18;91.97
50710;BME280;37033;49.994;21.992;2023-04-07T01:46:15;98942.54;;;0.18;91.86
50710;BME280;37033;49.994;21.992;2023-04-07T01:48:46;98949.19;;;0.21;91.96
50710;BME280;37033;49.994;21.992;2023-04-07T01:51:17;98950.26;;;0.21;91.88
50710;BME280;37033;49.994;21.992;2023-04-07T01:53:49;98954.60;;;0.22;91.83
50710;BME280;37033;49.994;21.992;2023-04-07T01:56:21;98956.17;;;0.22;91.68
50710;BME280;37033;49.994;21.992;2023-04-07T01:58:52;98954.84;;;0.24;91.78
50710;BME280;37033;49.994;21.992;2023-04-07T02:01:22;98958.81;;;0.24;91.68
50710;BME280;37033;49.994;21.992;2023-04-07T02:03:55;98952.81;;;0.25;91.43
50710;BME280;37033;49.994;21.992;2023-04-07T02:06:29;98948.48;;;0.27;91.37
50710;BME280;37033;49.994;21.992;2023-04-07T02:09:05;98942.98;;;0.26;91.40
50710;BME280;37033;49.994;21.992;2023-04-07T02:11:37;98943.70;;;0.28;91.48
50710;BME280;37033;49.994;21.992;2023-04-07T02:14:09;98937.52;;;0.27;91.61
50710;BME280;37033;49.994;21.992;2023-04-07T02:16:41;98937.34;;;0.26;91.44
50710;BME280;37033;49.994;21.992;2023-04-07T02:19:12;98943.10;;;0.27;91.44
50710;BME280;37033;49.994;21.992;2023-04-07T02:21:44;98941.87;;;0.27;91.51
50710;BME280;37033;49.994;21.992;2023-04-07T02:24:19;98938.83;;;0.27;91.71
50710;BME280;37033;49.994;21.992;2023-04-07T02:26:51;98932.36;;;0.26;91.68
50710;BME280;37033;49.994;21.992;2023-04-07T02:29:22;98936.21;;;0.25;91.54
50710;BME280;37033;49.994;21.992;2023-04-07T02:31:52;98937.08;;;0.25;91.65
50710;BME280;37033;49.994;21.992;2023-04-07T02:34:23;98932.92;;;0.25;91.55
50710;BME280;37033;49.994;21.992;2023-04-07T02:36:54;98937.31;;;0.25;91.54
50710;BME280;37033;49.994;21.992;2023-04-07T02:39:24;98934.81;;;0.25;91.75
50710;BME280;37033;49.994;21.992;2023-04-07T02:41:55;98925.64;;;0.24;91.58
50710;BME280;37033;49.994;21.992;2023-04-07T02:44:26;98922.42;;;0.24;91.72
50710;BME280;37033;49.994;21.992;2023-04-07T02:46:56;98924.21;;;0.23;91.68
50710;BME280;37033;49.994;21.992;2023-04-07T02:49:27;98921.90;;;0.22;91.64
50710;BME280;37033;49.994;21.992;2023-04-07T02:51:57;98924.34;;;0.23;91.77
50710;BME280;37033;49.994;21.992;2023-04-07T02:54:28;98923.27;;;0.23;91.80
50710;BME280;37033;49.994;21.992;2023-04-07T02:56:59;98923.36;;;0.22;91.89
50710;BME280;37033;49.994;21.992;2023-04-07T02:59:30;98930.90;;;0.22;92.12
50710;BME280;37033;49.994;21.992;2023-04-07T03:02:01;98938.59;;;0.22;91.83
50710;BME280;37033;49.994;21.992;2023-04-07T03:04:31;98941.23;;;0.23;91.82
50710;BME280;37033;49.994;21.992;2023-04-07T03:07:02;98944.58;;;0.24;91.80
50710;BME280;37033;49.994;21.992;2023-04-07T03:09:33;98944.30;;;0.24;91.89
50710;BME280;37033;49.994;21.992;2023-04-07T03:12:04;98941.67;;;0.24;91.91
50710;BME280;37033;49.994;21.992;2023-04-07T03:14:34;98944.02;;;0.25;91.89
50710;BME280;37033;49.994;21.992;2023-04-07T03:17:05;98941.21;;;0.24;91.95
50710;BME280;37033;49.994;21.992;2023-04-07T03:19:36;98937.30;;;0.23;91.87
50710;BME280;37033;49.994;21.992;2023-04-07T03:22:06;98939.46;;;0.25;91.93
50710;BME280;37033;49.994;21.992;2023-04-07T03:24:37;98937.36;;;0.24;91.89
50710;BME280;37033;49.994;21.992;2023-04-07T03:27:09;98939.45;;;0.25;91.82
50710;BME280;37033;49.994;21.992;2023-04-07T03:29:40;98940.97;;;0.24;91.92
50710;BME280;37033;49.994;21.992;2023-04-07T03:32:10;98944.14;;;0.24;91.81
50710;BME280;37033;49.994;21.992;2023-04-07T03:34:41;98946.45;;;0.24;91.94
50710;BME280;37033;49.994;21.992;2023-04-07T03:37:12;98950.69;;;0.25;91.88
50710;BME280;37033;49.994;21.992;2023-04-07T03:39:42;98957.95;;;0.25;91.96
50710;BME280;37033;49.994;21.992;2023-04-07T03:42:13;98961.67;;;0.25;91.83
50710;BME280;37033;49.994;21.992;2023-04-07T03:44:43;98955.60;;;0.27;91.83
50710;BME280;37033;49.994;21.992;2023-04-07T03:47:14;98953.63;;;0.27;91.61
50710;BME280;37033;49.994;21.992;2023-04-07T03:49:45;98955.79;;;0.28;91.70
50710;BME280;37033;49.994;21.992;2023-04-07T03:52:15;98953.81;;;0.28;91.77
50710;BME280;37033;49.994;21.992;2023-04-07T03:54:46;98947.27;;;0.28;91.73
50710;BME280;37033;49.994;21.992;2023-04-07T03:57:17;98946.52;;;0.27;91.73
50710;BME280;37033;49.994;21.992;2023-04-07T03:59:47;98952.65;;;0.27;91.73
50710;BME280;37033;49.994;21.992;2023-04-07T04:02:19;98953.42;;;0.27;91.89
50710;BME280;37033;49.994;21.992;2023-04-07T04:04:50;98952.73;;;0.27;91.92
50710;BME280;37033;49.994;21.992;2023-04-07T04:07:20;98952.95;;;0.28;91.72
50710;BME280;37033;49.994;21.992;2023-04-07T04:09:51;98953.71;;;0.31;91.80
50710;BME280;37033;49.994;21.992;2023-04-07T04:12:22;98956.45;;;0.30;91.82
50710;BME280;37033;49.994;21.992;2023-04-07T04:14:52;98955.44;;;0.30;91.97
50710;BME280;37033;49.994;21.992;2023-04-07T04:17:23;98955.89;;;0.30;91.74
50710;BME280;37033;49.994;21.992;2023-04-07T04:19:55;98961.81;;;0.30;91.87
50710;BME280;37033;49.994;21.992;2023-04-07T04:22:25;98963.77;;;0.31;91.91
50710;BME280;37033;49.994;21.992;2023-04-07T04:24:56;98964.14;;;0.31;91.96
50710;BME280;37033;49.994;21.992;2023-04-07T04:27:27;98961.63;;;0.31;91.96
50710;BME280;37033;49.994;21.992;2023-04-07T04:29:57;98965.14;;;0.32;92.06
50710;BME280;37033;49.994;21.992;2023-04-07T04:32:28;98973.73;;;0.33;91.83
50710;BME280;37033;49.994;21.992;2023-04-07T04:34:59;98974.83;;;0.34;91.89
50710;BME280;37033;49.994;21.992;2023-04-07T04:37:29;98977.18;;;0.35;91.91
50710;BME280;37033;49.994;21.992;2023-04-07T04:40:00;98982.02;;;0.35;91.86
50710;BME280;37033;49.994;21.992;2023-04-07T04:42:31;98980.81;;;0.36;91.81
50710;BME280;37033;49.994;21.992;2023-04-07T04:45:02;98975.81;;;0.38;91.85
50710;BME280;37033;49.994;21.992;2023-04-07T04:47:33;98968.70;;;0.39;92.07
50710;BME280;37033;49.994;21.992;2023-04-07T04:50:04;98961.63;;;0.38;91.83
50710;BME280;37033;49.994;21.992;2023-04-07T04:52:34;98957.61;;;0.39;91.90
50710;BME280;37033;49.994;21.992;2023-04-07T04:55:10;98958.85;;;0.39;91.81
50710;BME280;37033;49.994;21.992;2023-04-07T04:57:41;98965.16;;;0.40;91.94
50710;BME280;37033;49.994;21.992;2023-04-07T05:00:14;98969.86;;;0.41;91.83
50710;BME280;37033;49.994;21.992;2023-04-07T05:02:45;98970.48;;;0.42;91.93
50710;BME280;37033;49.994;21.992;2023-04-07T05:05:19;98978.66;;;0.44;91.76
50710;BME280;37033;49.994;21.992;2023-04-07T05:07:50;98985.19;;;0.46;91.76
50710;BME280;37033;49.994;21.992;2023-04-07T05:10:25;98979.73;;;0.47;91.73
50710;BME280;37033;49.994;21.992;2023-04-07T05:12:56;98973.58;;;0.49;91.81
50710;BME280;37033;49.994;21.992;2023-04-07T05:15:27;98970.59;;;0.50;91.68
50710;BME280;37033;49.994;21.992;2023-04-07T05:17:58;98970.80;;;0.51;91.80
50710;BME280;37033;49.994;21.992;2023-04-07T05:20:28;98970.62;;;0.53;91.79
50710;BME280;37033;49.994;21.992;2023-04-07T05:23:02;98974.05;;;0.54;91.81
50710;BME280;37033;49.994;21.992;2023-04-07T05:25:36;98972.63;;;0.55;91.87
50710;BME280;37033;49.994;21.992;2023-04-07T05:28:07;98979.13;;;0.56;91.85
50710;BME280;37033;49.994;21.992;2023-04-07T05:30:37;98974.73;;;0.58;91.72
50710;BME280;37033;49.994;21.992;2023-04-07T05:33:08;98973.80;;;0.62;91.78
50710;BME280;37033;49.994;21.992;2023-04-07T05:35:39;98973.10;;;0.63;91.50
50710;BME280;37033;49.994;21.992;2023-04-07T05:38:10;98979.80;;;0.64;91.66
50710;BME280;37033;49.994;21.992;2023-04-07T05:40:41;98987.23;;;0.66;91.64
50710;BME280;37033;49.994;21.992;2023-04-07T05:43:15;98994.87;;;0.67;91.58
50710;BME280;37033;49.994;21.992;2023-04-07T05:45:46;98995.98;;;0.70;91.53
50710;BME280;37033;49.994;21.992;2023-04-07T05:48:16;98995.65;;;0.71;91.58
50710;BME280;37033;49.994;21.992;2023-04-07T05:50:47;98995.64;;;0.73;91.50
50710;BME280;37033;49.994;21.992;2023-04-07T05:53:18;98994.30;;;0.75;91.47
50710;BME280;37033;49.994;21.992;2023-04-07T05:55:49;99000.40;;;0.76;91.64
50710;BME280;37033;49.994;21.992;2023-04-07T05:58:19;98999.30;;;0.76;91.46
50710;BME280;37033;49.994;21.992;2023-04-07T06:00:50;98995.45;;;0.78;91.45
50710;BME280;37033;49.994;21.992;2023-04-07T06:03:21;98993.48;;;0.83;91.44
50710;BME280;37033;49.994;21.992;2023-04-07T06:05:52;98997.73;;;0.86;91.39
50710;BME280;37033;49.994;21.992;2023-04-07T06:08:22;98995.76;;;0.88;91.50
50710;BME280;37033;49.994;21.992;2023-04-07T06:10:53;98995.30;;;0.91;91.42
50710;BME280;37033;49.994;21.992;2023-04-07T06:13:24;98995.11;;;0.96;91.41
50710;BME280;37033;49.994;21.992;2023-04-07T06:15:56;99001.33;;;0.99;91.35
50710;BME280;37033;49.994;21.992;2023-04-07T06:18:27;99001.28;;;1.03;91.24
50710;BME280;37033;49.994;21.992;2023-04-07T06:20:58;98998.10;;;1.05;91.22
50710;BME280;37033;49.994;21.992;2023-04-07T06:23:28;98996.02;;;1.06;91.09
50710;BME280;37033;49.994;21.992;2023-04-07T06:25:59;99000.89;;;1.09;91.10
50710;BME280;37033;49.994;21.992;2023-04-07T06:28:30;99000.82;;;1.09;90.95
50710;BME280;37033;49.994;21.992;2023-04-07T06:31:04;98993.76;;;1.12;90.96
50710;BME280;37033;49.994;21.992;2023-04-07T06:33:35;98993.38;;;1.14;90.77
50710;BME280;37033;49.994;21.992;2023-04-07T06:36:06;98994.36;;;1.15;90.82
50710;BME280;37033;49.994;21.992;2023-04-07T06:38:37;98997.31;;;1.17;90.88
50710;BME280;37033;49.994;21.992;2023-04-07T06:41:08;98999.54;;;1.21;91.00
50710;BME280;37033;49.994;21.992;2023-04-07T06:43:41;99007.36;;;1.24;90.83
50710;BME280;37033;49.994;21.992;2023-04-07T06:46:12;99006.40;;;1.28;90.84
50710;BME280;37033;49.994;21.992;2023-04-07T06:48:43;99011.95;;;1.30;90.70
50710;BME280;37033;49.994;21.992;2023-04-07T06:51:14;99015.54;;;1.40;91.02
50710;BME280;37033;49.994;21.992;2023-04-07T06:53:44;99014.70;;;1.42;90.74
50710;BME280;37033;49.994;21.992;2023-04-07T06:56:16;99013.20;;;1.44;90.54
50710;BME280;37033;49.994;21.992;2023-04-07T06:58:47;99011.58;;;1.43;90.51
50710;BME280;37033;49.994;21.992;2023-04-07T07:01:18;99016.16;;;1.44;90.39
50710;BME280;37033;49.994;21.992;2023-04-07T07:03:51;99015.34;;;1.45;90.31
50710;BME280;37033;49.994;21.992;2023-04-07T07:06:22;99011.73;;;1.46;90.43
50710;BME280;37033;49.994;21.992;2023-04-07T07:08:53;99014.39;;;1.50;90.17
50710;BME280;37033;49.994;21.992;2023-04-07T07:11:24;99007.63;;;1.49;90.28
50710;BME280;37033;49.994;21.992;2023-04-07T07:13:55;99014.15;;;1.51;90.19
50710;BME280;37033;49.994;21.992;2023-04-07T07:16:29;99015.54;;;1.53;90.23
50710;BME280;37033;49.994;21.992;2023-04-07T07:19:00;99008.69;;;1.56;90.19
50710;BME280;37033;49.994;21.992;2023-04-07T07:21:31;99004.59;;;1.59;90.19
50710;BME280;37033;49.994;21.992;2023-04-07T07:24:02;99004.17;;;1.63;90.17
50710;BME280;37033;49.994;21.992;2023-04-07T07:26:33;99000.55;;;1.64;90.12
50710;BME280;37033;49.994;21.992;2023-04-07T07:29:06;98999.69;;;1.68;90.27
50710;BME280;37033;49.994;21.992;2023-04-07T07:31:36;99002.87;;;1.74;90.07
50710;BME280;37033;49.994;21.992;2023-04-07T07:34:07;99006.86;;;1.80;90.12
50710;BME280;37033;49.994;21.992;2023-04-07T07:36:38;99013.17;;;1.86;90.06
50710;BME280;37033;49.994;21.992;2023-04-07T07:39:09;99012.23;;;1.92;90.13
50710;BME280;37033;49.994;21.992;2023-04-07T07:41:40;99011.54;;;1.97;89.90
50710;BME280;37033;49.994;21.992;2023-04-07T07:44:11;99004.48;;;2.04;89.93
50710;BME280;37033;49.994;21.992;2023-04-07T07:46:42;99006.66;;;2.12;89.91
50710;BME280;37033;49.994;21.992;2023-04-07T07:49:12;99018.73;;;2.18;89.81
50710;BME280;37033;49.994;21.992;2023-04-07T07:51:43;99017.16;;;2.23;89.63
50710;BME280;37033;49.994;21.992;2023-04-07T07:54:15;99017.25;;;2.23;89.46
50710;BME280;37033;49.994;21.992;2023-04-07T07:56:45;99023.75;;;2.23;89.32
50710;BME280;37033;49.994;21.992;2023-04-07T07:59:19;99027.26;;;2.22;89.15
50710;BME280;37033;49.994;21.992;2023-04-07T08:01:50;99029.49;;;2.24;89.32
50710;BME280;37033;49.994;21.992;2023-04-07T08:04:20;99028.10;;;2.25;89.13
50710;BME280;37033;49.994;21.992;2023-04-07T08:06:54;99035.21;;;2.21;88.89
50710;BME280;37033;49.994;21.992;2023-04-07T08:09:25;99040.64;;;2.17;88.78
50710;BME280;37033;49.994;21.992;2023-04-07T08:11:56;99047.85;;;2.13;88.79
50710;BME280;37033;49.994;21.992;2023-04-07T08:14:30;99046.74;;;2.12;88.87
50710;BME280;37033;49.994;21.992;2023-04-07T08:17:00;99041.06;;;2.14;89.05
50710;BME280;37033;49.994;21.992;2023-04-07T08:19:31;99037.95;;;2.17;89.00
50710;BME280;37033;49.994;21.992;2023-04-07T08:22:02;99051.73;;;2.18;88.76
50710;BME280;37033;49.994;21.992;2023-04-07T08:24:33;99051.84;;;2.15;88.74
50710;BME280;37033;49.994;21.992;2023-04-07T08:27:04;99052.95;;;2.15;88.63
50710;BME280;37033;49.994;21.992;2023-04-07T08:29:35;99056.21;;;2.16;88.77
50710;BME280;37033;49.994;21.992;2023-04-07T08:32:05;99059.30;;;2.15;88.64
50710;BME280;37033;49.994;21.992;2023-04-07T08:34:36;99066.29;;;2.11;88.61
50710;BME280;37033;49.994;21.992;2023-04-07T08:37:07;99066.31;;;2.10;88.50
50710;BME280;37033;49.994;21.992;2023-04-07T08:39:37;99068.90;;;2.13;88.70
50710;BME280;37033;49.994;21.992;2023-04-07T08:42:09;99071.13;;;2.20;88.79
50710;BME280;37033;49.994;21.992;2023-04-07T08:44:42;99068.65;;;2.24;88.75
50710;BME280;37033;49.994;21.992;2023-04-07T08:47:17;99068.63;;;2.27;88.64
50710;BME280;37033;49.994;21.992;2023-04-07T08:49:52;99066.48;;;2.32;88.67
50710;BME280;37033;49.994;21.992;2023-04-07T08:52:23;99068.73;;;2.38;88.64
50710;BME280;37033;49.994;21.992;2023-04-07T08:54:56;99065.16;;;2.41;88.42
50710;BME280;37033;49.994;21.992;2023-04-07T08:57:30;99071.11;;;2.42;88.31
50710;BME280;37033;49.994;21.992;2023-04-07T09:00:03;99072.36;;;2.42;88.33
50710;BME280;37033;49.994;21.992;2023-04-07T09:02:37;99076.52;;;2.44;88.03
50710;BME280;37033;49.994;21.992;2023-04-07T09:05:09;99075.40;;;2.41;87.98
50710;BME280;37033;49.994;21.992;2023-04-07T09:07:41;99077.05;;;2.39;87.87
50710;BME280;37033;49.994;21.992;2023-04-07T09:10:12;99075.59;;;2.38;87.96
50710;BME280;37033;49.994;21.992;2023-04-07T09:12:44;99077.16;;;2.40;88.06
50710;BME280;37033;49.994;21.992;2023-04-07T09:15:14;99075.60;;;2.39;87.98
50710;BME280;37033;49.994;21.992;2023-04-07T09:17:45;99077.88;;;2.40;88.13
50710;BME280;37033;49.994;21.992;2023-04-07T09:20:16;99074.81;;;2.46;88.08
50710;BME280;37033;49.994;21.992;2023-04-07T09:22:47;99066.34;;;2.50;88.12
50710;BME280;37033;49.994;21.992;2023-04-07T09:25:19;99065.02;;;2.56;88.33
50710;BME280;37033;49.994;21.992;2023-04-07T09:28:00;99067.23;;;2.62;87.95
50710;BME280;37033;49.994;21.992;2023-04-07T09:30:32;99064.95;;;2.61;87.88
50710;BME280;37033;49.994;21.992;2023-04-07T09:33:03;99064.27;;;2.62;87.87
50710;BME280;37033;49.994;21.992;2023-04-07T09:35:51;99067.78;;;2.63;87.81
50710;BME280;37033;49.994;21.992;2023-04-07T09:38:22;99068.25;;;2.65;87.88
50710;BME280;37033;49.994;21.992;2023-04-07T09:41:07;99067.99;;;2.65;87.78
50710;BME280;37033;49.994;21.992;2023-04-07T09:43:39;99072.04;;;2.65;87.85
50710;BME280;37033;49.994;21.992;2023-04-07T09:46:12;99076.39;;;2.66;87.71
50710;BME280;37033;49.994;21.992;2023-04-07T09:48:44;99074.77;;;2.64;87.71
50710;BME280;37033;49.994;21.992;2023-04-07T09:51:16;99073.92;;;2.62;87.56
50710;BME280;37033;49.994;21.992;2023-04-07T09:53:48;99082.73;;;2.64;87.77
50710;BME280;37033;49.994;21.992;2023-04-07T09:56:20;99082.48;;;2.64;87.70
50710;BME280;37033;49.994;21.992;2023-04-07T09:58:52;99082.69;;;2.63;87.60
50710;BME280;37033;49.994;21.992;2023-04-07T10:01:23;99082.05;;;2.62;87.64
50710;BME280;37033;49.994;21.992;2023-04-07T10:03:53;99084.83;;;2.62;87.67
50710;BME280;37033;49.994;21.992;2023-04-07T10:06:25;99082.81;;;2.63;87.62
50710;BME280;37033;49.994;21.992;2023-04-07T10:08:56;99085.21;;;2.64;87.65
50710;BME280;37033;49.994;21.992;2023-04-07T10:11:27;99086.92;;;2.65;87.66
50710;BME280;37033;49.994;21.992;2023-04-07T10:13:58;99087.73;;;2.65;87.60
50710;BME280;37033;49.994;21.992;2023-04-07T10:16:29;99088.31;;;2.65;87.56
50710;BME280;37033;49.994;21.992;2023-04-07T10:19:00;99090.95;;;2.66;87.68
50710;BME280;37033;49.994;21.992;2023-04-07T10:21:31;99091.14;;;2.69;87.67
50710;BME280;37033;49.994;21.992;2023-04-07T10:24:07;99093.27;;;2.69;87.47
50710;BME280;37033;49.994;21.992;2023-04-07T10:26:44;99089.54;;;2.72;87.61
50710;BME280;37033;49.994;21.992;2023-04-07T10:29:16;99096.83;;;2.75;87.77
50710;BME280;37033;49.994;21.992;2023-04-07T10:31:48;99097.83;;;2.77;87.41
50710;BME280;37033;49.994;21.992;2023-04-07T10:34:55;99101.05;;;2.74;87.40
50710;BME280;37033;49.994;21.992;2023-04-07T10:37:27;99104.69;;;2.73;87.36
50710;BME280;37033;49.994;21.992;2023-04-07T10:43:02;99121.94;;;2.76;87.36
50710;BME280;37033;49.994;21.992;2023-04-07T10:45:53;99118.52;;;2.79;87.52
50710;BME280;37033;49.994;21.992;2023-04-07T10:48:24;99128.36;;;2.79;87.22
50710;BME280;37033;49.994;21.992;2023-04-07T10:51:16;99135.13;;;2.79;87.27
50710;BME280;37033;49.994;21.992;2023-04-07T10:57:06;99133.65;;;2.85;87.30
50710;BME280;37033;49.994;21.992;2023-04-07T10:59:41;99135.34;;;2.86;87.07
50710;BME280;37033;49.994;21.992;2023-04-07T11:02:36;99138.85;;;2.85;86.98
50710;BME280;37033;49.994;21.992;2023-04-07T11:05:07;99138.02;;;2.83;87.02
50710;BME280;37033;49.994;21.992;2023-04-07T11:07:52;99135.41;;;2.82;87.03
50710;BME280;37033;49.994;21.992;2023-04-07T11:10:25;99133.92;;;2.84;87.14
50710;BME280;37033;49.994;21.992;2023-04-07T11:13:07;99129.48;;;2.87;87.17
50710;BME280;37033;49.994;21.992;2023-04-07T11:15:38;99126.44;;;2.89;87.02
50710;BME280;37033;49.994;21.992;2023-04-07T11:18:17;99132.04;;;2.93;87.21
50710;BME280;37033;49.994;21.992;2023-04-07T11:20:50;99135.24;;;2.99;87.24
50710;BME280;37033;49.994;21.992;2023-04-07T11:23:22;99134.33;;;3.05;87.25
50710;BME280;37033;49.994;21.992;2023-04-07T11:26:00;99139.13;;;3.09;87.22
50710;BME280;37033;49.994;21.992;2023-04-07T11:28:31;99138.30;;;3.15;87.26
50710;BME280;37033;49.994;21.992;2023-04-07T11:31:02;99143.08;;;3.20;87.11
50710;BME280;37033;49.994;21.992;2023-04-07T11:33:36;99146.58;;;3.26;87.29
50710;BME280;37033;49.994;21.992;2023-04-07T11:36:07;99148.98;;;3.34;87.26
50710;BME280;37033;49.994;21.992;2023-04-07T11:38:38;99153.73;;;3.37;86.97
50710;BME280;37033;49.994;21.992;2023-04-07T11:41:13;99156.22;;;3.39;86.73
50710;BME280;37033;49.994;21.992;2023-04-07T11:43:44;99160.69;;;3.41;86.88
50710;BME280;37033;49.994;21.992;2023-04-07T11:46:16;99162.20;;;3.44;86.90
50710;BME280;37033;49.994;21.992;2023-04-07T11:48:47;99163.08;;;3.48;86.83
50710;BME280;37033;49.994;21.992;2023-04-07T11:51:19;99162.99;;;3.51;86.83
50710;BME280;37033;49.994;21.992;2023-04-07T11:53:56;99164.77;;;3.53;86.64
50710;BME280;37033;49.994;21.992;2023-04-07T11:56:27;99165.65;;;3.53;86.62
50710;BME280;37033;49.994;21.992;2023-04-07T11:58:58;99169.53;;;3.51;86.46
50710;BME280;37033;49.994;21.992;2023-04-07T12:01:40;99164.93;;;3.48;86.51
50710;BME280;37033;49.994;21.992;2023-04-07T12:04:13;99166.67;;;3.48;86.44
50710;BME280;37033;49.994;21.992;2023-04-07T12:06:45;99167.17;;;3.47;86.45
50710;BME280;37033;49.994;21.992;2023-04-07T12:09:29;99165.77;;;3.47;86.64
50710;BME280;37033;49.994;21.992;2023-04-07T12:12:04;99166.58;;;3.46;86.53
50710;BME280;37033;49.994;21.992;2023-04-07T12:14:36;99169.44;;;3.46;86.52
50710;BME280;37033;49.994;21.992;2023-04-07T12:17:13;99167.70;;;3.48;86.56
50710;BME280;37033;49.994;21.992;2023-04-07T12:19:49;99173.39;;;3.53;86.70
50710;BME280;37033;49.994;21.992;2023-04-07T12:22:20;99178.33;;;3.58;86.74
50710;BME280;37033;49.994;21.992;2023-04-07T12:24:51;99181.07;;;3.63;86.72
50710;BME280;37033;49.994;21.992;2023-04-07T12:27:21;99187.83;;;3.66;86.63
50710;BME280;37033;49.994;21.992;2023-04-07T12:29:52;99189.20;;;3.66;86.54
50710;BME280;37033;49.994;21.992;2023-04-07T12:32:23;99195.06;;;3.66;86.43
50710;BME280;37033;49.994;21.992;2023-04-07T12:34:54;99194.40;;;3.64;86.28
50710;BME280;37033;49.994;21.992;2023-04-07T12:37:25;99195.41;;;3.61;86.25
50710;BME280;37033;49.994;21.992;2023-04-07T12:39:55;99195.25;;;3.63;86.38
50710;BME280;37033;49.994;21.992;2023-04-07T12:42:27;99196.21;;;3.65;86.13
50710;BME280;37033;49.994;21.992;2023-04-07T12:44:57;99197.08;;;3.63;86.25
50710;BME280;37033;49.994;21.992;2023-04-07T12:47:28;99196.95;;;3.64;86.37
50710;BME280;37033;49.994;21.992;2023-04-07T12:49:59;99196.95;;;3.64;86.29
50710;BME280;37033;49.994;21.992;2023-04-07T12:52:30;99193.37;;;3.66;86.15
50710;BME280;37033;49.994;21.992;2023-04-07T12:55:01;99197.21;;;3.66;86.19
50710;BME280;37033;49.994;21.992;2023-04-07T12:57:32;99197.35;;;3.69;86.24
50710;BME280;37033;49.994;21.992;2023-04-07T13:00:03;99199.35;;;3.73;86.19
50710;BME280;37033;49.994;21.992;2023-04-07T13:02:34;99201.92;;;3.78;86.19
50710;BME280;37033;49.994;21.992;2023-04-07T13:05:07;99209.36;;;3.86;86.34
50710;BME280;37033;49.994;21.992;2023-04-07T13:07:38;99206.89;;;3.88;86.21
50710;BME280;37033;49.994;21.992;2023-04-07T13:10:11;99208.30;;;3.91;86.10
50710;BME280;37033;49.994;21.992;2023-04-07T13:12:42;99210.92;;;3.96;85.97
50710;BME280;37033;49.994;21.992;2023-04-07T13:15:12;99214.60;;;4.01;86.06
50710;BME280;37033;49.994;21.992;2023-04-07T13:17:43;99214.83;;;4.03;85.86
50710;BME280;37033;49.994;21.992;2023-04-07T13:20:14;99215.70;;;4.06;85.94
50710;BME280;37033;49.994;21.992;2023-04-07T13:22:45;99213.77;;;4.06;85.64
50710;BME280;37033;49.994;21.992;2023-04-07T13:25:15;99217.73;;;4.04;85.39
50710;BME280;37033;49.994;21.992;2023-04-07T13:27:46;99219.26;;;4.03;85.58
50710;BME280;37033;49.994;21.992;2023-04-07T13:30:17;99223.52;;;4.05;85.45
50710;BME280;37033;49.994;21.992;2023-04-07T13:32:47;99222.61;;;4.12;85.73